createdAt,value
2022-12-16T00:01:07.677Z,100536.91
2022-12-16T00:03:36.733Z,100536.31
2022-12-16T00:06:06.022Z,100539.09
2022-12-16T00:08:34.201Z,100538.63
2022-12-16T00:11:01.691Z,100550.22
2022-12-16T00:13:29.983Z,100559.13
2022-12-16T00:15:58.612Z,100559.13
2022-12-16T00:18:26.168Z,100558.28
2022-12-16T00:20:54.932Z,100559.94
2022-12-16T00:23:23.669Z,100570.44
2022-12-16T00:25:51.846Z,100570.44
2022-12-16T00:28:22.546Z,100574.78
2022-12-16T00:30:50.015Z,100567.78
2022-12-16T00:33:17.548Z,100569.97
2022-12-16T00:35:46.192Z,100567.19
2022-12-16T00:38:13.621Z,100569.72
2022-12-16T00:40:42.349Z,100566.34
2022-12-16T00:43:09.763Z,100574.31
2022-12-16T00:45:37.586Z,100576.97
2022-12-16T00:48:05.079Z,100568.88
2022-12-16T00:50:32.582Z,100560.34
2022-12-16T00:52:59.980Z,100572.50
2022-12-16T00:55:27.375Z,100565.66
2022-12-16T00:57:56.058Z,100563.00
2022-12-16T01:00:23.658Z,100562.00
2022-12-16T01:02:51.620Z,100561.28
2022-12-16T01:05:21.709Z,100564.94
2022-12-16T01:07:49.212Z,100570.25
2022-12-16T01:10:19.680Z,100569.97
2022-12-16T01:12:47.083Z,100571.19
2022-12-16T01:15:15.982Z,100577.31
2022-12-16T01:17:43.524Z,100570.25
2022-12-16T01:20:11.971Z,100575.66
2022-12-16T01:22:39.360Z,100570.47
2022-12-16T01:25:08.198Z,100566.84
2022-12-16T01:27:35.859Z,100581.91
2022-12-16T01:30:03.283Z,100570.25
2022-12-16T01:32:32.072Z,100571.31
2022-12-16T01:34:59.710Z,100570.09
2022-12-16T01:37:27.133Z,100579.13
2022-12-16T01:39:54.557Z,100572.16
2022-12-16T01:42:22.568Z,100569.00
2022-12-16T01:44:52.058Z,100577.44
2022-12-16T01:47:22.995Z,100564.91
2022-12-16T01:49:53.759Z,100564.78
2022-12-16T01:52:23.810Z,100568.97
2022-12-16T01:54:52.877Z,100567.31
2022-12-16T01:57:23.396Z,100579.34
2022-12-16T01:59:51.756Z,100578.38
2022-12-16T02:02:19.894Z,100574.88
2022-12-16T02:05:01.498Z,100571.38
2022-12-16T02:07:30.229Z,100562.47
2022-12-16T02:09:57.693Z,100560.66
2022-12-16T02:12:27.701Z,100556.41
2022-12-16T02:15:09.618Z,100558.25
2022-12-16T02:17:39.253Z,100552.09
2022-12-16T02:20:13.580Z,100549.56
2022-12-16T02:22:50.109Z,100547.38
2022-12-16T02:25:27.982Z,100552.22
2022-12-16T02:28:02.153Z,100556.19
2022-12-16T02:30:49.025Z,100548.47
2022-12-16T02:33:27.594Z,100552.22
2022-12-16T02:35:55.945Z,100547.88
2022-12-16T02:38:25.881Z,100556.31
2022-12-16T02:40:55.172Z,100555.47
2022-12-16T02:43:32.361Z,100550.16
2022-12-16T02:46:01.358Z,100550.41
2022-12-16T02:48:28.866Z,100554.50
2022-12-16T02:50:56.699Z,100550.41
2022-12-16T02:53:24.097Z,100546.78
2022-12-16T02:55:54.156Z,100545.09
2022-12-16T02:58:22.174Z,100553.53
2022-12-16T03:00:53.452Z,100538.72
2022-12-16T03:03:25.234Z,100543.16
2022-12-16T03:05:52.678Z,100548.47
2022-12-16T03:08:21.437Z,100543.16
2022-12-16T03:10:51.475Z,100535.66
2022-12-16T03:13:19.732Z,100542.09
2022-12-16T03:15:48.039Z,100547.50
2022-12-16T03:18:15.437Z,100546.56
2022-12-16T03:20:45.582Z,100544.03
2022-12-16T03:23:14.358Z,100538.72
2022-12-16T03:25:42.934Z,100530.19
2022-12-16T03:28:14.301Z,100529.44
2022-12-16T03:30:43.529Z,100523.06
2022-12-16T03:33:12.877Z,100528.81
2022-12-16T03:35:41.114Z,100526.28
2022-12-16T03:38:10.920Z,100527.25
2022-12-16T03:40:38.791Z,100520.28
2022-12-16T03:43:06.776Z,100521.94
2022-12-16T03:45:37.745Z,100517.63
2022-12-16T03:48:05.964Z,100519.16
2022-12-16T03:50:34.528Z,100519.28
2022-12-16T03:53:01.931Z,100523.63
2022-12-16T03:55:30.633Z,100526.41
2022-12-16T03:57:58.050Z,100529.91
2022-12-16T04:00:25.512Z,100535.78
2022-12-16T04:02:53.228Z,100533.41
2022-12-16T04:05:20.859Z,100533.28
2022-12-16T04:07:48.269Z,100526.53
2022-12-16T04:10:15.693Z,100534.25
2022-12-16T04:13:02.232Z,100537.03
2022-12-16T04:15:47.326Z,100541.25
2022-12-16T04:18:33.089Z,100550.16
2022-12-16T04:21:17.861Z,100551.84
2022-12-16T04:24:06.087Z,100556.88
2022-12-16T04:26:53.634Z,100551.56
2022-12-16T04:29:22.329Z,100549.31
2022-12-16T04:31:49.885Z,100555.47
2022-12-16T04:34:29.330Z,100561.47
2022-12-16T04:37:15.083Z,100559.66
2022-12-16T04:40:00.162Z,100556.19
2022-12-16T04:42:45.108Z,100551.97
2022-12-16T04:45:31.539Z,100554.34
2022-12-16T04:48:16.801Z,100555.47
2022-12-16T04:51:04.808Z,100552.94
2022-12-16T04:53:50.159Z,100558.81
2022-12-16T04:56:35.288Z,100559.53
2022-12-16T04:59:20.291Z,100560.78
2022-12-16T05:02:06.986Z,100560.66
2022-12-16T05:04:52.147Z,100564.00
2022-12-16T05:07:38.692Z,100566.53
2022-12-16T05:10:24.650Z,100562.72
2022-12-16T05:13:11.215Z,100568.59
2022-12-16T05:15:52.705Z,100565.84
2022-12-16T05:18:47.651Z,100565.13
2022-12-16T05:21:32.396Z,100564.13
2022-12-16T05:24:17.574Z,100567.50
2022-12-16T05:27:02.760Z,100558.59
2022-12-16T05:29:48.071Z,100565.84
2022-12-16T05:32:32.867Z,100564.13
2022-12-16T05:35:19.413Z,100575.44
2022-12-16T05:38:04.737Z,100573.66
2022-12-16T05:40:50.072Z,100575.56
2022-12-16T05:43:35.452Z,100575.56
2022-12-16T05:46:20.773Z,100578.97
2022-12-16T05:49:02.306Z,100583.88
2022-12-16T05:51:48.631Z,100584.00
2022-12-16T05:54:44.871Z,100579.81
2022-12-16T05:57:30.407Z,100587.66
2022-12-16T06:00:15.194Z,100588.06
2022-12-16T06:03:00.574Z,100604.41
2022-12-16T06:05:45.680Z,100615.75
2022-12-16T06:08:32.327Z,100615.03
2022-12-16T06:11:17.205Z,100615.97
2022-12-16T06:14:02.496Z,100615.75
2022-12-16T06:16:47.321Z,100623.94
2022-12-16T06:19:32.391Z,100633.59
2022-12-16T06:22:17.467Z,100640.72
2022-12-16T06:25:03.973Z,100648.06
2022-12-16T06:27:48.989Z,100642.88
2022-12-16T06:30:34.111Z,100653.84
2022-12-16T06:33:21.300Z,100665.28
2022-12-16T06:36:06.603Z,100662.78
2022-12-16T06:38:53.577Z,100666.88
2022-12-16T06:41:40.183Z,100669.53
2022-12-16T06:44:25.001Z,100678.31
2022-12-16T06:47:10.353Z,100678.44
2022-12-16T06:49:54.631Z,100686.38
2022-12-16T06:52:39.770Z,100692.28
2022-12-16T06:55:25.162Z,100689.78
2022-12-16T06:58:16.182Z,100695.09
2022-12-16T07:01:01.577Z,100701.34
2022-12-16T07:03:46.830Z,100695.94
2022-12-16T07:06:31.608Z,100697.72
2022-12-16T07:09:17.041Z,100707.59
2022-12-16T07:12:01.841Z,100709.06
2022-12-16T07:14:48.501Z,100710.13
2022-12-16T07:17:33.422Z,100725.22
2022-12-16T07:20:18.643Z,100721.56
2022-12-16T07:23:19.985Z,100731.34
2022-12-16T07:26:05.201Z,100734.34
2022-12-16T07:28:50.366Z,100746.66
2022-12-16T07:31:37.114Z,100752.78
2022-12-16T07:34:21.904Z,100749.41
2022-12-16T07:37:07.031Z,100757.84
2022-12-16T07:39:55.176Z,100764.13
2022-12-16T07:42:40.597Z,100768.81
2022-12-16T07:45:26.514Z,100769.28
2022-12-16T07:48:12.706Z,100775.47
2022-12-16T07:50:58.018Z,100773.78
2022-12-16T07:53:43.369Z,100785.09
2022-12-16T07:56:28.664Z,100773.66
2022-12-16T07:59:13.870Z,100794.88
2022-12-16T08:01:58.758Z,100782.44
2022-12-16T08:04:45.031Z,100793.91
2022-12-16T08:07:30.198Z,100797.50
2022-12-16T08:10:15.609Z,100790.41
2022-12-16T08:13:14.936Z,100794.97
2022-12-16T08:15:59.781Z,100798.34
2022-12-16T08:18:44.737Z,100815.13
2022-12-16T08:21:31.152Z,100816.81
2022-12-16T08:24:16.525Z,100817.63
2022-12-16T08:27:01.894Z,100822.00
2022-12-16T08:29:47.211Z,100819.22
2022-12-16T08:32:32.690Z,100821.88
2022-12-16T08:35:17.933Z,100827.19
2022-12-16T08:38:08.876Z,100819.09
2022-12-16T08:40:57.023Z,100819.22
2022-12-16T08:43:42.331Z,100822.47
2022-12-16T08:46:27.086Z,100822.47
2022-12-16T08:49:12.246Z,100827.91
2022-12-16T08:51:57.098Z,100824.28
2022-12-16T08:54:43.659Z,100821.88
2022-12-16T08:57:28.422Z,100827.06
2022-12-16T09:00:13.653Z,100823.31
2022-12-16T09:02:58.597Z,100826.75
2022-12-16T09:05:43.860Z,100831.28
2022-12-16T09:08:29.204Z,100829.94
2022-12-16T09:11:18.163Z,100835.47
2022-12-16T09:14:03.063Z,100835.47
2022-12-16T09:16:48.414Z,100833.53
2022-12-16T09:19:33.151Z,100842.09
2022-12-16T09:22:18.550Z,100841.16
2022-12-16T09:25:03.393Z,100846.22
2022-12-16T09:27:46.131Z,100841.66
2022-12-16T09:30:31.282Z,100842.81
2022-12-16T09:33:16.729Z,100840.16
2022-12-16T09:36:01.546Z,100843.81
2022-12-16T09:38:46.753Z,100848.00
2022-12-16T09:41:45.063Z,100846.22
2022-12-16T09:44:35.768Z,100847.34
2022-12-16T09:47:23.699Z,100855.19
2022-12-16T09:50:09.130Z,100852.31
2022-12-16T09:52:55.450Z,100848.06
2022-12-16T09:55:51.653Z,100844.34
2022-12-16T09:58:37.002Z,100838.06
2022-12-16T10:01:28.933Z,100846.63
2022-12-16T10:04:14.344Z,100840.25
2022-12-16T10:07:01.338Z,100846.63
2022-12-16T10:09:48.655Z,100841.22
2022-12-16T10:12:47.269Z,100843.38
2022-12-16T10:15:44.772Z,100842.31
2022-12-16T10:18:38.042Z,100846.75
2022-12-16T10:21:23.265Z,100837.00
2022-12-16T10:24:11.376Z,100830.72
2022-12-16T10:27:00.737Z,100832.41
2022-12-16T10:29:45.957Z,100826.16
2022-12-16T10:32:32.836Z,100837.84
2022-12-16T10:35:19.355Z,100826.00
2022-12-16T10:38:04.774Z,100832.19
2022-12-16T10:40:50.917Z,100835.66
2022-12-16T10:43:38.338Z,100839.03
2022-12-16T10:46:24.518Z,100830.97
2022-12-16T10:49:09.732Z,100839.63
2022-12-16T10:51:56.196Z,100848.81
2022-12-16T10:54:49.189Z,100842.31
2022-12-16T10:57:39.386Z,100847.25
2022-12-16T11:00:29.009Z,100844.47
2022-12-16T11:03:14.554Z,100845.44
2022-12-16T11:05:59.894Z,100849.91
2022-12-16T11:08:48.168Z,100843.84
2022-12-16T11:11:38.611Z,100846.50
2022-12-16T11:14:38.786Z,100840.00
2022-12-16T11:17:35.371Z,100849.91
2022-12-16T11:20:34.459Z,100856.06
2022-12-16T11:23:32.283Z,100852.19
2022-12-16T11:26:36.000Z,100850.38
2022-12-16T11:29:24.047Z,100854.72
2022-12-16T11:32:10.349Z,100859.78
2022-12-16T11:34:55.416Z,100866.03
2022-12-16T11:37:40.767Z,100867.16
2022-12-16T11:40:30.132Z,100871.63
2022-12-16T11:43:17.289Z,100870.63
2022-12-16T11:46:02.634Z,100873.06
2022-12-16T11:48:50.812Z,100871.84
2022-12-16T11:51:36.138Z,100868.47
2022-12-16T11:54:24.494Z,100865.81
2022-12-16T11:57:09.801Z,100869.94
2022-12-16T11:59:57.339Z,100872.78
2022-12-16T12:02:43.935Z,100867.41
2022-12-16T12:05:30.647Z,100863.28
2022-12-16T12:08:17.735Z,100870.66
2022-12-16T12:11:13.169Z,100865.56
2022-12-16T12:14:08.716Z,100868.22
2022-12-16T12:17:01.475Z,100867.72
2022-12-16T12:19:48.825Z,100872.69
2022-12-16T12:22:49.671Z,100874.84
2022-12-16T12:25:39.320Z,100879.94
2022-12-16T12:28:27.800Z,100886.81
2022-12-16T12:31:14.106Z,100884.41
2022-12-16T12:34:07.350Z,100887.66
2022-12-16T12:36:50.810Z,100890.31
2022-12-16T12:39:49.883Z,100901.28
2022-12-16T12:42:45.673Z,100905.66
2022-12-16T12:45:48.071Z,100913.00
2022-12-16T12:48:35.852Z,100907.06
2022-12-16T12:51:24.529Z,100909.59
2022-12-16T12:54:12.791Z,100901.53
2022-12-16T12:57:02.036Z,100909.25
2022-12-16T12:59:49.842Z,100910.47
2022-12-16T13:02:37.429Z,100907.44
2022-12-16T13:05:24.767Z,100916.00
2022-12-16T13:08:11.104Z,100927.47
2022-12-16T13:10:56.549Z,100925.78
2022-12-16T13:13:49.934Z,100925.63
2022-12-16T13:17:25.971Z,100927.47
2022-12-16T13:20:12.528Z,100930.94
2022-12-16T13:22:59.834Z,100929.38
2022-12-16T13:25:49.914Z,100933.00
2022-12-16T13:28:39.304Z,100933.97
2022-12-16T13:31:25.852Z,100934.69
2022-12-16T13:34:11.434Z,100937.47
2022-12-16T13:36:56.869Z,100943.88
2022-12-16T13:39:42.797Z,100956.88
2022-12-16T13:43:01.687Z,100952.44
2022-12-16T13:45:52.301Z,100960.41
2022-12-16T13:48:51.838Z,100965.09
2022-12-16T13:52:25.657Z,100965.59
2022-12-16T13:55:26.565Z,100961.63
2022-12-16T13:58:20.009Z,100971.78
2022-12-16T14:01:13.193Z,100983.72
2022-12-16T14:04:00.120Z,100981.06
2022-12-16T14:06:45.479Z,100988.06
2022-12-16T14:09:56.436Z,100989.88
2022-12-16T14:13:00.287Z,100996.88
2022-12-16T14:15:47.922Z,100987.94
2022-12-16T14:18:43.544Z,100992.41
2022-12-16T14:21:31.648Z,100988.31
2022-12-16T14:24:18.958Z,100992.88
2022-12-16T14:27:15.272Z,100999.28
2022-12-16T14:30:00.938Z,101004.72
2022-12-16T14:32:46.850Z,101008.09
2022-12-16T14:35:34.983Z,101009.91
2022-12-16T14:38:33.384Z,101017.03
2022-12-16T14:41:18.762Z,101015.94
2022-12-16T14:44:03.454Z,101018.59
2022-12-16T14:46:49.444Z,101016.88
2022-12-16T14:49:42.191Z,101031.50
2022-12-16T14:52:36.801Z,101036.06
2022-12-16T14:55:31.148Z,101037.13
2022-12-16T14:58:28.125Z,101042.44
2022-12-16T15:01:18.935Z,101047.16
2022-12-16T15:04:05.208Z,101044.50
2022-12-16T15:06:51.713Z,101057.88
2022-12-16T15:09:42.011Z,101064.13
2022-12-16T15:12:27.313Z,101062.22
2022-12-16T15:15:12.747Z,101060.53
2022-12-16T15:18:02.742Z,101056.09
2022-12-16T15:20:49.045Z,101059.59
2022-12-16T15:23:37.878Z,101063.94
2022-12-16T15:26:24.550Z,101076.72
2022-12-16T15:29:09.573Z,101074.31
2022-12-16T15:32:01.383Z,101078.78
2022-12-16T15:34:49.846Z,101082.81
2022-12-16T15:37:42.723Z,101088.84
2022-12-16T15:40:37.755Z,101095.81
2022-12-16T15:43:24.282Z,101095.81
2022-12-16T15:46:23.622Z,101091.38
2022-12-16T15:49:08.731Z,101099.97
2022-12-16T15:52:01.576Z,101094.16
2022-12-16T15:54:46.970Z,101106.22
2022-12-16T15:57:45.656Z,101098.97
2022-12-16T16:00:36.725Z,101112.13
2022-12-16T16:03:21.627Z,101105.88
2022-12-16T16:06:06.770Z,101108.41
2022-12-16T16:08:51.610Z,101113.50
2022-12-16T16:11:36.910Z,101116.28
2022-12-16T16:14:21.655Z,101120.47
2022-12-16T16:17:13.552Z,101122.06
2022-12-16T16:20:03.219Z,101119.53
2022-12-16T16:22:48.835Z,101122.31
2022-12-16T16:25:33.607Z,101130.16
2022-12-16T16:28:19.036Z,101132.59
2022-12-16T16:31:03.990Z,101142.56
2022-12-16T16:33:50.372Z,101145.38
2022-12-16T16:36:35.671Z,101157.75
2022-12-16T16:39:21.008Z,101150.28
2022-12-16T16:42:05.895Z,101150.00
2022-12-16T16:45:05.424Z,101158.97
2022-12-16T16:47:51.478Z,101160.63
2022-12-16T16:50:38.468Z,101157.97
2022-12-16T16:53:23.389Z,101159.06
2022-12-16T16:56:12.626Z,101158.72
2022-12-16T16:59:00.274Z,101159.91
2022-12-16T17:01:45.730Z,101163.56
2022-12-16T17:04:31.006Z,101170.53
2022-12-16T17:07:17.423Z,101164.16
2022-12-16T17:10:02.317Z,101165.94
2022-12-16T17:12:48.785Z,101164.28
2022-12-16T17:15:40.574Z,101167.03
2022-12-16T17:18:25.689Z,101167.53
2022-12-16T17:21:11.011Z,101171.53
2022-12-16T17:23:59.855Z,101166.94
2022-12-16T17:26:45.176Z,101172.25
2022-12-16T17:29:39.327Z,101170.41
2022-12-16T17:32:24.232Z,101183.81
2022-12-16T17:35:09.470Z,101189.84
2022-12-16T17:37:54.357Z,101191.44
2022-12-16T17:40:40.955Z,101194.09
2022-12-16T17:43:25.790Z,101196.75
2022-12-16T17:46:15.297Z,101198.59
2022-12-16T17:49:00.446Z,101198.47
2022-12-16T17:51:54.175Z,101202.06
2022-12-16T17:54:38.861Z,101202.91
2022-12-16T17:57:25.589Z,101207.28
2022-12-16T18:00:10.280Z,101207.38
2022-12-16T18:02:58.879Z,101212.81
2022-12-16T18:05:44.807Z,101220.34
2022-12-16T18:08:30.075Z,101219.22
2022-12-16T18:11:15.872Z,101223.91
2022-12-16T18:14:02.461Z,101223.91
2022-12-16T18:16:47.780Z,101222.00
2022-12-16T18:19:33.917Z,101230.75
2022-12-16T18:22:19.198Z,101237.00
2022-12-16T18:25:04.362Z,101237.00
2022-12-16T18:27:49.215Z,101235.94
2022-12-16T18:30:35.721Z,101237.78
2022-12-16T18:33:20.484Z,101242.72
2022-12-16T18:36:05.749Z,101242.47
2022-12-16T18:38:50.555Z,101241.75
2022-12-16T18:41:36.959Z,101244.31
2022-12-16T18:44:22.148Z,101254.09
2022-12-16T18:47:08.613Z,101254.94
2022-12-16T18:49:54.055Z,101262.41
2022-12-16T18:52:39.353Z,101262.41
2022-12-16T18:55:25.385Z,101264.34
2022-12-16T18:58:49.515Z,101263.28
2022-12-16T19:01:27.535Z,101264.97
2022-12-16T19:04:13.951Z,101275.72
2022-12-16T19:06:58.616Z,101269.22
2022-12-16T19:09:44.142Z,101274.53
2022-12-16T19:12:29.232Z,101274.75
2022-12-16T19:15:14.523Z,101277.16
2022-12-16T19:17:59.276Z,101280.69
2022-12-16T19:20:45.967Z,101288.88
2022-12-16T19:23:32.714Z,101288.75
2022-12-16T19:26:18.357Z,101294.09
2022-12-16T19:29:03.901Z,101293.47
2022-12-16T19:31:47.900Z,101293.09
2022-12-16T19:34:33.265Z,101294.09
2022-12-16T19:37:19.999Z,101295.75
2022-12-16T19:40:05.375Z,101299.28
2022-12-16T19:42:50.427Z,101305.44
2022-12-16T19:45:36.715Z,101314.34
2022-12-16T19:48:21.606Z,101310.75
2022-12-16T19:51:06.955Z,101316.91
2022-12-16T19:53:53.517Z,101317.75
2022-12-16T19:56:41.448Z,101324.03
2022-12-16T19:59:26.587Z,101325.00
2022-12-16T20:02:12.045Z,101329.34
2022-12-16T20:04:57.128Z,101330.31
2022-12-16T20:07:42.443Z,101336.25
2022-12-16T20:10:25.215Z,101332.63
2022-12-16T20:13:10.535Z,101337.09
2022-12-16T20:15:55.529Z,101337.09
2022-12-16T20:18:41.445Z,101344.72
2022-12-16T20:21:27.011Z,101352.47
2022-12-16T20:24:11.925Z,101355.13
2022-12-16T20:26:58.328Z,101348.13
2022-12-16T20:29:43.222Z,101355.13
2022-12-16T20:32:40.048Z,101363.00
2022-12-16T20:35:24.356Z,101363.81
2022-12-16T20:38:11.174Z,101369.25
2022-12-16T20:44:02.572Z,101383.31
2022-12-16T20:46:47.419Z,101382.31
2022-12-16T20:49:32.618Z,101383.31
2022-12-16T20:52:17.538Z,101377.72
2022-12-16T20:55:02.930Z,101379.56
2022-12-16T20:57:47.893Z,101380.28
2022-12-16T21:00:34.538Z,101384.75
2022-12-16T21:03:19.882Z,101384.03
2022-12-16T21:06:05.073Z,101389.13
2022-12-16T21:08:49.998Z,101389.13
2022-12-16T21:11:35.350Z,101398.66
2022-12-16T21:14:20.781Z,101396.97
2022-12-16T21:14:42.530Z,101374.72
2022-12-16T21:17:07.420Z,101398.56
2022-12-16T21:19:52.782Z,101405.59
2022-12-16T21:22:41.467Z,101399.22
2022-12-16T21:25:27.314Z,101408.88
2022-12-16T21:28:20.584Z,101409.97
2022-12-16T21:31:05.878Z,101410.94
2022-12-16T21:33:52.500Z,101418.56
2022-12-16T21:36:37.806Z,101416.03
2022-12-16T21:39:22.643Z,101423.41
2022-12-16T21:42:07.831Z,101418.09
2022-12-16T21:44:52.648Z,101429.47
2022-12-16T21:47:41.384Z,101419.91
2022-12-16T21:50:27.872Z,101419.56
2022-12-16T21:53:13.041Z,101434.91
2022-12-16T21:55:54.783Z,101429.38
2022-12-16T21:58:42.025Z,101431.03
2022-12-16T22:01:26.815Z,101438.31
2022-12-16T22:04:11.653Z,101447.00
2022-12-16T22:06:58.272Z,101451.25
2022-12-16T22:09:43.194Z,101446.91
2022-12-16T22:12:28.526Z,101450.50
2022-12-16T22:15:13.423Z,101448.72
2022-12-16T22:17:58.991Z,101450.91
2022-12-16T22:20:44.120Z,101448.03
2022-12-16T22:23:39.379Z,101448.66
2022-12-16T22:26:24.460Z,101448.03
2022-12-16T22:29:21.728Z,101443.03
2022-12-16T22:32:06.766Z,101449.22
2022-12-16T22:34:52.043Z,101454.44
2022-12-16T22:37:36.970Z,101460.63
2022-12-16T22:40:24.473Z,101455.50
2022-12-16T22:43:09.420Z,101455.50
2022-12-16T22:46:00.016Z,101461.53
2022-12-16T22:48:45.014Z,101464.94
2022-12-16T22:51:41.744Z,101462.28
2022-12-16T22:54:26.920Z,101463.47
2022-12-16T22:57:13.378Z,101466.84
2022-12-16T22:59:58.161Z,101474.00
2022-12-16T23:02:48.721Z,101477.50
2022-12-16T23:05:34.144Z,101478.47
2022-12-16T23:08:19.563Z,101475.59
2022-12-16T23:11:23.369Z,101479.84
2022-12-16T23:14:09.613Z,101475.81
2022-12-16T23:16:54.434Z,101474.53
2022-12-16T23:19:41.621Z,101484.44
2022-12-16T23:22:26.795Z,101478.47
2022-12-16T23:25:17.150Z,101478.47
2022-12-16T23:28:02.176Z,101480.16
2022-12-16T23:30:48.684Z,101487.50
2022-12-16T23:33:34.427Z,101484.84
2022-12-16T23:36:19.631Z,101473.44
2022-12-16T23:39:04.396Z,101477.59
2022-12-16T23:41:49.880Z,101483.75
2022-12-16T23:44:34.747Z,101490.88
2022-12-16T23:47:20.436Z,101489.91
2022-12-16T23:50:06.398Z,101495.22
2022-12-16T23:52:52.183Z,101491.38
2022-12-16T23:55:36.976Z,101496.72
2022-12-16T23:58:22.819Z,101498.16
